createdAt,value
2022-12-05T00:01:13.239Z,4.77
2022-12-05T00:03:40.394Z,13.85
2022-12-05T00:06:07.616Z,5.83
2022-12-05T00:08:34.836Z,7.30
2022-12-05T00:11:01.955Z,12.10
2022-12-05T00:13:29.012Z,5.20
2022-12-05T00:15:56.172Z,7.40
2022-12-05T00:18:23.269Z,8.03
2022-12-05T00:20:50.396Z,12.70
2022-12-05T00:23:17.513Z,5.63
2022-12-05T00:25:44.631Z,8.07
2022-12-05T00:28:11.697Z,4.17
2022-12-05T00:30:40.957Z,5.93
2022-12-05T00:33:08.051Z,10.67
2022-12-05T00:35:35.539Z,5.87
2022-12-05T00:38:02.756Z,11.57
2022-12-05T00:40:29.835Z,11.27
2022-12-05T00:42:56.937Z,7.53
2022-12-05T00:45:24.193Z,6.10
2022-12-05T00:47:51.297Z,9.53
2022-12-05T00:50:18.397Z,7.53
2022-12-05T00:52:45.631Z,6.13
2022-12-05T00:55:12.761Z,5.80
2022-12-05T00:57:39.834Z,12.73
2022-12-05T01:00:07.466Z,10.63
2022-12-05T01:02:34.530Z,7.97
2022-12-05T01:05:01.650Z,10.03
2022-12-05T01:07:28.865Z,6.27
2022-12-05T01:09:56.356Z,7.50
2022-12-05T01:12:23.617Z,11.50
2022-12-05T01:14:50.888Z,6.03
2022-12-05T01:17:17.974Z,12.77
2022-12-05T01:19:45.054Z,8.67
2022-12-05T01:22:12.196Z,6.60
2022-12-05T01:24:39.256Z,10.20
2022-12-05T01:27:06.343Z,9.00
2022-12-05T01:29:33.559Z,9.67
2022-12-05T01:32:00.778Z,10.73
2022-12-05T01:34:27.954Z,7.47
2022-12-05T01:36:55.167Z,7.87
2022-12-05T01:39:22.536Z,11.90
2022-12-05T01:41:50.774Z,9.70
2022-12-05T01:44:17.981Z,8.57
2022-12-05T01:46:52.170Z,7.73
2022-12-05T01:49:25.235Z,9.07
2022-12-05T01:51:58.650Z,12.70
2022-12-05T01:54:26.007Z,12.07
2022-12-05T01:57:00.699Z,5.87
2022-12-05T01:59:29.929Z,9.10
2022-12-05T02:01:57.120Z,8.30
2022-12-05T02:04:24.262Z,7.23
2022-12-05T02:06:51.484Z,11.83
2022-12-05T02:09:18.625Z,6.53
2022-12-05T02:11:49.960Z,5.20
2022-12-05T02:14:23.324Z,9.33
2022-12-05T02:17:09.133Z,8.33
2022-12-05T02:19:39.245Z,7.00
2022-12-05T02:22:16.816Z,8.67
2022-12-05T02:24:54.489Z,5.40
2022-12-05T02:27:30.403Z,12.40
2022-12-05T02:30:17.962Z,17.27
2022-12-05T02:32:57.076Z,8.13
2022-12-05T02:35:38.753Z,8.47
2022-12-05T02:38:13.725Z,9.17
2022-12-05T02:41:00.915Z,13.27
2022-12-05T02:43:33.095Z,9.07
2022-12-05T02:46:02.997Z,5.37
2022-12-05T02:48:30.280Z,19.77
2022-12-05T02:50:59.691Z,7.07
2022-12-05T02:53:27.969Z,9.47
2022-12-05T02:55:55.381Z,11.17
2022-12-05T02:58:24.230Z,7.23
2022-12-05T03:00:56.465Z,10.10
2022-12-05T03:03:24.118Z,4.67
2022-12-05T03:06:06.333Z,10.70
2022-12-05T03:08:36.628Z,6.83
2022-12-05T03:11:04.336Z,12.38
2022-12-05T03:13:34.789Z,10.80
2022-12-05T03:16:03.962Z,10.35
2022-12-05T03:18:34.451Z,10.20
2022-12-05T03:21:08.523Z,9.93
2022-12-05T03:23:38.274Z,7.90
2022-12-05T03:26:25.666Z,11.90
2022-12-05T03:28:58.822Z,15.93
2022-12-05T03:31:32.382Z,14.57
2022-12-05T03:34:01.199Z,13.23
2022-12-05T03:36:37.190Z,18.60
2022-12-05T03:39:09.889Z,15.73
2022-12-05T03:42:03.283Z,6.53
2022-12-05T03:44:35.400Z,5.87
2022-12-05T03:47:02.458Z,7.50
2022-12-05T03:49:34.301Z,7.57
2022-12-05T03:52:23.195Z,9.67
2022-12-05T03:54:52.171Z,8.17
2022-12-05T03:57:23.901Z,9.67
2022-12-05T03:59:53.515Z,5.00
2022-12-05T04:02:33.144Z,7.27
2022-12-05T04:05:09.970Z,8.07
2022-12-05T04:07:39.211Z,5.93
2022-12-05T04:10:07.936Z,10.27
2022-12-05T04:12:36.102Z,9.80
2022-12-05T04:15:06.888Z,9.77
2022-12-05T04:17:41.624Z,6.97
2022-12-05T04:20:32.568Z,7.17
2022-12-05T04:23:00.284Z,7.47
2022-12-05T04:25:34.937Z,3.33
2022-12-05T04:28:05.090Z,5.03
2022-12-05T04:30:37.701Z,5.47
2022-12-05T04:33:11.587Z,9.17
2022-12-05T04:35:42.507Z,6.00
2022-12-05T04:38:11.364Z,8.25
2022-12-05T04:40:40.547Z,5.40
2022-12-05T04:43:08.320Z,9.10
2022-12-05T04:45:36.748Z,8.13
2022-12-05T04:48:07.980Z,7.03
2022-12-05T04:50:35.460Z,6.80
2022-12-05T04:53:03.259Z,10.57
2022-12-05T04:55:32.275Z,10.43
2022-12-05T04:58:08.386Z,7.63
2022-12-05T05:00:45.351Z,7.57
2022-12-05T05:03:19.465Z,4.90
2022-12-05T05:05:49.304Z,11.73
2022-12-05T05:08:17.633Z,7.00
2022-12-05T05:11:02.911Z,10.33
2022-12-05T05:13:29.981Z,6.07
2022-12-05T05:15:57.092Z,7.23
2022-12-05T05:18:24.351Z,6.57
2022-12-05T05:20:51.442Z,10.20
2022-12-05T05:23:18.551Z,9.07
2022-12-05T05:25:45.718Z,7.40
2022-12-05T05:28:12.797Z,8.20
2022-12-05T05:30:39.888Z,7.03
2022-12-05T05:33:07.031Z,10.10
2022-12-05T05:35:36.745Z,7.03
2022-12-05T05:38:04.234Z,3.97
2022-12-05T05:40:32.464Z,8.57
2022-12-05T05:42:59.571Z,13.27
2022-12-05T05:45:26.660Z,6.27
2022-12-05T05:47:53.827Z,12.13
2022-12-05T05:50:22.006Z,11.57
2022-12-05T05:52:49.273Z,11.87
2022-12-05T05:55:16.457Z,10.83
2022-12-05T05:57:43.566Z,7.67
2022-12-05T06:00:10.996Z,9.27
2022-12-05T06:02:38.501Z,12.37
2022-12-05T06:05:05.818Z,10.20
2022-12-05T06:07:33.054Z,13.90
2022-12-05T06:10:00.715Z,10.63
2022-12-05T06:12:28.176Z,10.37
2022-12-05T06:14:55.322Z,12.37
2022-12-05T06:17:22.487Z,8.93
2022-12-05T06:19:49.551Z,12.83
2022-12-05T06:22:16.705Z,14.53
2022-12-05T06:24:43.838Z,15.40
2022-12-05T06:27:10.916Z,8.88
2022-12-05T06:29:38.018Z,13.23
2022-12-05T06:32:05.364Z,11.13
2022-12-05T06:34:32.771Z,9.83
2022-12-05T06:37:00.275Z,10.27
2022-12-05T06:39:27.589Z,18.40
2022-12-05T06:41:54.717Z,9.87
2022-12-05T06:44:22.004Z,13.60
2022-12-05T06:46:49.502Z,13.87
2022-12-05T06:49:16.572Z,14.03
2022-12-05T06:51:43.662Z,10.37
2022-12-05T06:54:12.702Z,17.47
2022-12-05T06:56:39.824Z,17.70
2022-12-05T06:59:06.913Z,11.15
2022-12-05T07:01:43.871Z,12.00
2022-12-05T07:04:13.056Z,16.13
2022-12-05T07:06:40.737Z,19.73
2022-12-05T07:09:08.515Z,11.27
2022-12-05T07:11:36.064Z,13.93
2022-12-05T07:14:10.431Z,11.25
2022-12-05T07:16:46.421Z,15.85
2022-12-05T07:19:13.539Z,20.90
2022-12-05T07:21:40.591Z,20.23
2022-12-05T07:24:07.753Z,23.15
2022-12-05T07:26:34.817Z,18.15
2022-12-05T07:29:01.890Z,11.48
2022-12-05T07:31:29.922Z,15.60
2022-12-05T07:33:57.066Z,14.60
2022-12-05T07:36:24.140Z,17.20
2022-12-05T07:38:55.932Z,13.02
2022-12-05T07:41:24.433Z,15.45
2022-12-05T07:43:52.337Z,11.10
2022-12-05T07:46:19.676Z,16.25
2022-12-05T07:48:47.797Z,20.42
2022-12-05T07:51:15.171Z,12.02
2022-12-05T07:53:43.802Z,14.43
2022-12-05T07:56:11.873Z,15.00
2022-12-05T07:58:39.119Z,19.65
2022-12-05T08:01:11.006Z,20.05
2022-12-05T08:03:38.659Z,19.05
2022-12-05T08:06:09.982Z,14.32
2022-12-05T08:08:37.739Z,8.30
2022-12-05T08:11:10.005Z,15.55
2022-12-05T08:13:37.176Z,9.75
2022-12-05T08:16:26.217Z,13.48
2022-12-05T08:18:57.241Z,11.73
2022-12-05T08:21:27.729Z,18.13
2022-12-05T08:23:55.238Z,16.75
2022-12-05T08:26:26.632Z,20.83
2022-12-05T08:28:58.415Z,21.45
2022-12-05T08:31:28.587Z,14.93
2022-12-05T08:33:59.159Z,11.00
2022-12-05T08:36:27.595Z,20.23
2022-12-05T08:38:58.723Z,18.30
2022-12-05T08:41:30.253Z,17.23
2022-12-05T08:43:58.641Z,16.15
2022-12-05T08:46:26.070Z,16.30
2022-12-05T08:48:53.377Z,23.05
2022-12-05T08:51:20.433Z,16.55
2022-12-05T08:53:47.684Z,13.68
2022-12-05T08:56:14.952Z,16.05
2022-12-05T08:58:42.116Z,22.27
2022-12-05T09:01:10.719Z,20.40
2022-12-05T09:03:40.094Z,19.40
2022-12-05T09:08:36.752Z,10.38
2022-12-05T09:11:07.696Z,10.85
2022-12-05T09:13:34.905Z,23.50
2022-12-05T09:16:12.647Z,18.88
2022-12-05T09:18:39.729Z,18.13
2022-12-05T09:21:11.349Z,21.85
2022-12-05T09:23:38.725Z,15.80
2022-12-05T09:26:06.537Z,24.23
2022-12-05T09:28:34.260Z,23.42
2022-12-05T09:31:08.903Z,17.38
2022-12-05T09:33:36.943Z,22.50
2022-12-05T09:36:05.226Z,17.50
2022-12-05T09:38:32.460Z,15.30
2022-12-05T09:41:08.415Z,21.65
2022-12-05T09:43:40.877Z,20.58
2022-12-05T09:46:20.832Z,23.90
2022-12-05T09:48:48.152Z,24.58
2022-12-05T09:51:15.260Z,22.83
2022-12-05T09:53:43.939Z,25.40
2022-12-05T09:56:28.229Z,13.80
2022-12-05T09:58:56.152Z,22.92
2022-12-05T10:01:42.582Z,23.58
2022-12-05T10:04:28.528Z,24.17
2022-12-05T10:06:55.675Z,18.90
2022-12-05T10:09:31.464Z,23.38
2022-12-05T10:12:10.534Z,20.08
2022-12-05T10:14:46.585Z,21.48
2022-12-05T10:17:35.048Z,25.40
2022-12-05T10:20:06.231Z,20.15
2022-12-05T10:22:53.673Z,22.35
2022-12-05T10:25:21.976Z,25.83
2022-12-05T10:27:53.184Z,23.17
2022-12-05T10:32:57.972Z,21.83
2022-12-05T10:35:26.392Z,19.13
2022-12-05T10:38:00.572Z,14.98
2022-12-05T10:40:33.772Z,22.13
2022-12-05T10:43:00.931Z,23.65
2022-12-05T10:45:28.117Z,21.48
2022-12-05T10:47:56.929Z,14.95
2022-12-05T10:50:31.864Z,19.55
2022-12-05T10:52:59.946Z,23.05
2022-12-05T10:55:31.881Z,21.60
2022-12-05T10:58:23.847Z,23.52
2022-12-05T11:00:55.775Z,20.55
2022-12-05T11:03:34.148Z,21.35
2022-12-05T11:06:02.407Z,23.05
2022-12-05T11:09:02.545Z,27.85
2022-12-05T11:11:19.501Z,24.75
2022-12-05T11:14:01.190Z,24.30
2022-12-05T11:16:33.125Z,30.10
2022-12-05T11:19:18.405Z,23.55
2022-12-05T11:21:45.545Z,21.95
2022-12-05T11:24:22.821Z,20.50
2022-12-05T11:26:50.756Z,22.65
2022-12-05T11:29:33.207Z,18.40
2022-12-05T11:32:00.537Z,18.77
2022-12-05T11:34:30.616Z,20.40
2022-12-05T11:37:00.737Z,25.05
2022-12-05T11:39:27.886Z,20.55
2022-12-05T11:42:01.259Z,16.83
2022-12-05T11:44:43.423Z,20.52
2022-12-05T11:47:16.651Z,22.15
2022-12-05T11:50:02.772Z,22.98
2022-12-05T11:52:40.949Z,21.95
2022-12-05T11:55:08.213Z,17.60
2022-12-05T11:57:52.306Z,10.82
2022-12-05T12:00:28.359Z,23.67
2022-12-05T12:03:14.176Z,25.75
2022-12-05T12:05:41.276Z,22.77
2022-12-05T12:08:11.424Z,19.55
2022-12-05T12:10:49.142Z,26.25
2022-12-05T12:13:26.142Z,25.67
2022-12-05T12:16:08.935Z,19.13
2022-12-05T12:18:54.641Z,28.10
2022-12-05T12:21:40.580Z,17.83
2022-12-05T12:24:13.861Z,18.80
2022-12-05T12:26:59.749Z,18.15
2022-12-05T12:29:46.032Z,25.00
2022-12-05T12:32:22.179Z,23.33
2022-12-05T12:34:52.061Z,25.88
2022-12-05T12:37:37.736Z,22.08
2022-12-05T12:40:07.964Z,20.33
2022-12-05T12:42:47.226Z,18.20
2022-12-05T12:45:24.716Z,20.17
2022-12-05T12:48:18.058Z,24.95
2022-12-05T12:50:46.276Z,21.88
2022-12-05T12:53:32.488Z,19.25
2022-12-05T12:56:09.184Z,18.75
2022-12-05T12:58:40.331Z,18.58
2022-12-05T13:01:33.970Z,21.23
2022-12-05T13:04:06.657Z,22.35
2022-12-05T13:06:42.161Z,18.80
2022-12-05T13:09:15.285Z,23.00
2022-12-05T13:11:43.231Z,14.70
2022-12-05T13:14:14.777Z,23.95
2022-12-05T13:16:46.065Z,16.30
2022-12-05T13:19:38.927Z,20.83
2022-12-05T13:22:07.357Z,25.55
2022-12-05T13:24:34.492Z,20.95
2022-12-05T13:27:03.118Z,17.17
2022-12-05T13:29:32.858Z,21.13
2022-12-05T13:32:01.222Z,15.75
2022-12-05T13:34:29.362Z,13.38
2022-12-05T13:37:17.120Z,12.43
2022-12-05T13:40:09.668Z,11.10
2022-12-05T13:42:38.006Z,8.98
2022-12-05T13:45:05.059Z,13.50
2022-12-05T13:47:32.187Z,14.75
2022-12-05T13:50:10.969Z,13.98
2022-12-05T13:52:47.006Z,11.68
2022-12-05T13:55:35.846Z,16.45
2022-12-05T13:58:05.096Z,17.90
2022-12-05T14:00:32.498Z,11.85
2022-12-05T14:03:04.861Z,14.13
2022-12-05T14:05:43.099Z,12.18
2022-12-05T14:08:25.291Z,20.20
2022-12-05T14:10:52.420Z,12.32
2022-12-05T14:13:19.568Z,14.02
2022-12-05T14:15:47.159Z,19.15
2022-12-05T14:18:16.751Z,19.83
2022-12-05T14:21:02.444Z,16.05
2022-12-05T14:23:32.646Z,15.23
2022-12-05T14:26:31.497Z,18.10
2022-12-05T14:29:04.693Z,16.42
2022-12-05T14:31:49.846Z,20.63
2022-12-05T14:34:20.817Z,18.13
2022-12-05T14:36:53.698Z,17.75
2022-12-05T14:39:22.488Z,19.65
2022-12-05T14:41:56.503Z,27.33
2022-12-05T14:44:24.558Z,20.00
2022-12-05T14:46:51.648Z,18.00
2022-12-05T14:49:48.654Z,18.48
2022-12-05T14:52:19.833Z,16.27
2022-12-05T14:54:47.054Z,20.02
2022-12-05T14:57:19.342Z,19.17
2022-12-05T14:59:46.711Z,18.00
2022-12-05T15:02:20.844Z,21.63
2022-12-05T15:04:51.720Z,14.60
2022-12-05T15:07:23.925Z,17.10
2022-12-05T15:09:58.958Z,19.83
2022-12-05T15:12:38.553Z,15.98
2022-12-05T15:15:08.642Z,18.63
2022-12-05T15:17:40.526Z,19.45
2022-12-05T15:20:28.069Z,24.08
2022-12-05T15:22:55.269Z,14.15
2022-12-05T15:25:24.269Z,16.98
2022-12-05T15:27:59.303Z,17.42
2022-12-05T15:30:26.732Z,21.90
2022-12-05T15:32:59.233Z,15.25
2022-12-05T15:35:27.725Z,14.73
2022-12-05T15:37:56.759Z,19.10
2022-12-05T15:40:26.061Z,20.25
2022-12-05T15:42:54.479Z,13.80
2022-12-05T15:45:25.923Z,15.15
2022-12-05T15:47:59.900Z,20.83
2022-12-05T15:50:36.005Z,22.45
2022-12-05T15:53:05.658Z,23.92
2022-12-05T15:55:32.772Z,21.90
2022-12-05T15:58:12.605Z,18.88
2022-12-05T16:00:41.576Z,16.27
2022-12-05T16:03:11.845Z,16.50
2022-12-05T16:05:46.825Z,12.33
2022-12-05T16:08:14.129Z,16.20
2022-12-05T16:10:41.330Z,20.63
2022-12-05T16:13:12.805Z,18.38
2022-12-05T16:15:46.403Z,13.35
2022-12-05T16:18:27.518Z,18.73
2022-12-05T16:20:54.952Z,19.27
2022-12-05T16:23:33.377Z,17.83
2022-12-05T16:26:19.792Z,16.80
2022-12-05T16:28:59.854Z,22.88
2022-12-05T16:31:27.177Z,17.23
2022-12-05T16:34:07.896Z,22.45
2022-12-05T16:36:35.529Z,23.15
2022-12-05T16:39:07.029Z,26.15
2022-12-05T16:41:35.318Z,31.58
2022-12-05T16:44:10.776Z,17.80
2022-12-05T16:46:43.187Z,25.73
2022-12-05T16:49:16.666Z,27.08
2022-12-05T16:51:45.706Z,26.85
2022-12-05T16:54:13.088Z,26.10
2022-12-05T16:56:40.168Z,28.13
2022-12-05T16:59:08.011Z,31.52
2022-12-05T17:01:39.079Z,36.60
2022-12-05T17:04:06.643Z,27.42
2022-12-05T17:06:33.904Z,27.67
2022-12-05T17:09:00.952Z,27.00
2022-12-05T17:11:30.184Z,30.75
2022-12-05T17:13:58.306Z,29.73
2022-12-05T17:16:26.691Z,29.13
2022-12-05T17:18:53.993Z,24.27
2022-12-05T17:21:23.236Z,26.27
2022-12-05T17:23:50.692Z,29.42
2022-12-05T17:26:19.574Z,26.77
2022-12-05T17:28:47.156Z,17.30
2022-12-05T17:31:17.183Z,23.17
2022-12-05T17:33:45.058Z,32.37
2022-12-05T17:36:12.572Z,25.52
2022-12-05T17:38:39.700Z,21.75
2022-12-05T17:41:07.320Z,25.60
2022-12-05T17:43:35.123Z,31.95
2022-12-05T17:46:02.811Z,26.08
2022-12-05T17:48:30.082Z,25.42
2022-12-05T17:51:00.510Z,26.80
2022-12-05T17:53:27.603Z,28.48
2022-12-05T17:55:54.687Z,27.80
2022-12-05T17:58:21.878Z,22.77
2022-12-05T18:00:49.057Z,24.40
2022-12-05T18:03:18.023Z,28.15
2022-12-05T18:05:45.766Z,17.50
2022-12-05T18:08:13.438Z,25.25
2022-12-05T18:10:44.595Z,34.42
2022-12-05T18:13:12.146Z,23.10
2022-12-05T18:15:42.940Z,25.67
2022-12-05T18:20:37.517Z,23.10
2022-12-05T18:23:04.753Z,25.48
2022-12-05T18:25:34.930Z,23.00
2022-12-05T18:28:02.207Z,27.33
2022-12-05T18:30:29.294Z,24.58
2022-12-05T18:32:56.376Z,20.88
2022-12-05T18:35:40.594Z,24.27
2022-12-05T18:38:08.735Z,36.80
2022-12-05T18:40:35.906Z,29.75
2022-12-05T18:43:03.207Z,31.20
2022-12-05T18:45:30.490Z,26.27
2022-12-05T18:48:09.893Z,29.13
2022-12-05T18:50:44.922Z,22.45
2022-12-05T18:53:11.992Z,31.20
2022-12-05T18:56:04.627Z,27.52
2022-12-05T18:58:26.164Z,30.23
2022-12-05T19:00:53.327Z,26.10
2022-12-05T19:03:20.432Z,29.48
2022-12-05T19:05:47.558Z,25.85
2022-12-05T19:08:14.709Z,23.05
2022-12-05T19:10:41.825Z,28.40
2022-12-05T19:13:09.493Z,29.92
2022-12-05T19:15:36.562Z,28.80
2022-12-05T19:18:03.715Z,25.42
2022-12-05T19:20:30.872Z,24.50
2022-12-05T19:23:00.997Z,30.45
2022-12-05T19:25:29.834Z,25.35
2022-12-05T19:27:57.047Z,25.02
2022-12-05T19:30:24.106Z,24.63
2022-12-05T19:32:51.184Z,19.33
2022-12-05T19:35:18.365Z,34.72
2022-12-05T19:37:45.441Z,30.83
2022-12-05T19:40:12.758Z,27.10
2022-12-05T19:42:39.960Z,24.45
2022-12-05T19:45:09.639Z,32.92
2022-12-05T19:47:39.840Z,26.88
2022-12-05T19:50:07.224Z,24.15
2022-12-05T19:52:34.508Z,27.05
2022-12-05T19:55:01.637Z,26.90
2022-12-05T19:57:31.412Z,30.38
2022-12-05T19:59:59.077Z,27.67
2022-12-05T20:02:26.401Z,23.85
2022-12-05T20:04:53.519Z,24.90
2022-12-05T20:07:20.587Z,23.85
2022-12-05T20:09:47.741Z,27.20
2022-12-05T20:12:14.840Z,27.58
2022-12-05T20:14:41.889Z,34.72
2022-12-05T20:17:09.084Z,33.45
2022-12-05T20:19:36.204Z,34.30
2022-12-05T20:22:03.323Z,34.47
2022-12-05T20:24:30.535Z,31.25
2022-12-05T20:26:57.586Z,31.98
2022-12-05T20:29:24.679Z,32.08
2022-12-05T20:31:56.542Z,30.50
2022-12-05T20:34:23.755Z,29.60
2022-12-05T20:36:50.848Z,30.58
2022-12-05T20:39:18.027Z,39.83
2022-12-05T20:41:45.359Z,35.22
2022-12-05T20:44:14.060Z,34.35
2022-12-05T20:46:41.800Z,31.77
2022-12-05T20:49:09.133Z,30.70
2022-12-05T20:51:36.395Z,27.67
2022-12-05T20:54:06.643Z,32.92
2022-12-05T20:56:34.685Z,33.33
2022-12-05T20:59:03.141Z,33.33
2022-12-05T21:01:31.456Z,27.15
2022-12-05T21:03:58.740Z,26.85
2022-12-05T21:06:25.819Z,21.02
2022-12-05T21:08:53.581Z,23.42
2022-12-05T21:11:20.929Z,19.33
2022-12-05T21:13:48.210Z,24.70
2022-12-05T21:16:16.790Z,27.35
2022-12-05T21:18:44.151Z,20.58
2022-12-05T21:21:15.271Z,23.10
2022-12-05T21:23:43.346Z,19.83
2022-12-05T21:26:14.831Z,21.10
2022-12-05T21:28:42.705Z,24.58
2022-12-05T21:31:14.173Z,17.45
2022-12-05T21:33:42.386Z,20.20
2022-12-05T21:36:09.723Z,20.13
2022-12-05T21:38:36.894Z,20.38
2022-12-05T21:41:05.345Z,21.77
2022-12-05T21:43:32.501Z,22.35
2022-12-05T21:45:59.664Z,18.95
2022-12-05T21:48:27.827Z,18.48
2022-12-05T21:50:55.446Z,18.67
2022-12-05T21:53:23.144Z,20.10
2022-12-05T21:55:59.720Z,19.52
2022-12-05T21:58:27.041Z,22.63
2022-12-05T22:00:54.185Z,23.50
2022-12-05T22:03:21.238Z,20.60
2022-12-05T22:05:49.605Z,22.25
2022-12-05T22:08:16.972Z,21.95
2022-12-05T22:10:44.143Z,23.67
2022-12-05T22:13:11.352Z,21.08
2022-12-05T22:15:38.455Z,21.80
2022-12-05T22:18:05.671Z,20.75
2022-12-05T22:20:32.873Z,24.50
2022-12-05T22:22:59.936Z,18.83
2022-12-05T22:25:26.990Z,19.00
2022-12-05T22:27:55.768Z,20.92
2022-12-05T22:30:22.882Z,19.40
2022-12-05T22:32:53.695Z,21.02
2022-12-05T22:35:20.829Z,20.52
2022-12-05T22:37:47.950Z,23.17
2022-12-05T22:40:15.146Z,17.88
2022-12-05T22:42:42.266Z,14.40
2022-12-05T22:45:09.584Z,24.75
2022-12-05T22:47:36.643Z,26.33
2022-12-05T22:50:03.893Z,25.67
2022-12-05T22:52:30.970Z,24.42
2022-12-05T22:54:58.276Z,22.58
2022-12-05T22:57:25.672Z,21.80
2022-12-05T22:59:52.748Z,19.00
2022-12-05T23:02:19.853Z,20.58
2022-12-05T23:04:47.060Z,22.23
2022-12-05T23:07:14.138Z,20.98
2022-12-05T23:09:41.202Z,21.47
2022-12-05T23:12:08.368Z,20.70
2022-12-05T23:14:35.426Z,22.67
2022-12-05T23:17:02.497Z,20.30
2022-12-05T23:19:29.676Z,21.35
2022-12-05T23:21:56.803Z,21.92
2022-12-05T23:24:23.897Z,22.05
2022-12-05T23:26:51.513Z,22.58
2022-12-05T23:29:18.606Z,19.58
2022-12-05T23:31:45.721Z,23.70
2022-12-05T23:34:13.012Z,19.08
2022-12-05T23:36:40.179Z,22.75
2022-12-05T23:39:07.333Z,26.52
2022-12-05T23:41:34.601Z,23.40
2022-12-05T23:44:01.887Z,23.10
2022-12-05T23:46:29.318Z,24.60
2022-12-05T23:48:57.469Z,22.55
2022-12-05T23:51:25.620Z,23.45
2022-12-05T23:53:54.398Z,24.13
2022-12-05T23:56:23.103Z,25.05
2022-12-05T23:58:50.190Z,41.20
